sensor_id;sensor_type;location;lat;lon;timestamp;temperature;humidity
12025;DHT22;6073;53.230;10.444;2022-10-16T00:01:36;13.00;99.90
12025;DHT22;6073;53.230;10.444;2022-10-16T00:04:03;12.90;99.90
12025;DHT22;6073;53.230;10.444;2022-10-16T00:06:30;13.00;99.90
12025;DHT22;6073;53.230;10.444;2022-10-16T00:08:57;13.00;99.90
12025;DHT22;6073;53.230;10.444;2022-10-16T00:11:29;13.00;99.90
12025;DHT22;6073;53.230;10.444;2022-10-16T00:13:59;13.00;99.90
12025;DHT22;6073;53.230;10.444;2022-10-16T00:16:26;12.90;99.90
12025;DHT22;6073;53.230;10.444;2022-10-16T00:18:52;12.90;99.90
12025;DHT22;6073;53.230;10.444;2022-10-16T00:21:20;12.80;99.90
12025;DHT22;6073;53.230;10.444;2022-10-16T00:23:46;12.70;99.90
12025;DHT22;6073;53.230;10.444;2022-10-16T00:26:16;12.70;99.90
12025;DHT22;6073;53.230;10.444;2022-10-16T00:28:42;12.70;99.90
12025;DHT22;6073;53.230;10.444;2022-10-16T00:31:10;12.70;99.90
12025;DHT22;6073;53.230;10.444;2022-10-16T00:33:38;12.70;99.90
12025;DHT22;6073;53.230;10.444;2022-10-16T00:36:05;12.70;99.90
12025;DHT22;6073;53.230;10.444;2022-10-16T00:38:31;12.70;99.90
12025;DHT22;6073;53.230;10.444;2022-10-16T00:41:13;12.60;99.90
12025;DHT22;6073;53.230;10.444;2022-10-16T00:46:27;12.60;99.90
12025;DHT22;6073;53.230;10.444;2022-10-16T00:49:05;12.60;99.90
12025;DHT22;6073;53.230;10.444;2022-10-16T00:51:40;12.60;99.90
12025;DHT22;6073;53.230;10.444;2022-10-16T00:54:31;12.50;99.90
12025;DHT22;6073;53.230;10.444;2022-10-16T01:00:24;12.40;99.90
12025;DHT22;6073;53.230;10.444;2022-10-16T01:02:58;12.40;99.90
12025;DHT22;6073;53.230;10.444;2022-10-16T01:05:41;12.30;99.90
12025;DHT22;6073;53.230;10.444;2022-10-16T01:08:22;12.30;99.90
12025;DHT22;6073;53.230;10.444;2022-10-16T01:10:57;12.30;99.90
12025;DHT22;6073;53.230;10.444;2022-10-16T01:13:29;12.30;99.90
12025;DHT22;6073;53.230;10.444;2022-10-16T01:16:08;12.20;99.90
12025;DHT22;6073;53.230;10.444;2022-10-16T01:18:48;12.20;99.90
12025;DHT22;6073;53.230;10.444;2022-10-16T01:21:24;12.10;99.90
12025;DHT22;6073;53.230;10.444;2022-10-16T01:24:27;12.10;99.90
12025;DHT22;6073;53.230;10.444;2022-10-16T01:34:51;12.00;99.90
12025;DHT22;6073;53.230;10.444;2022-10-16T01:37:55;11.90;99.90
12025;DHT22;6073;53.230;10.444;2022-10-16T01:40:26;11.80;99.90
12025;DHT22;6073;53.230;10.444;2022-10-16T01:43:00;11.80;99.90
12025;DHT22;6073;53.230;10.444;2022-10-16T01:45:30;11.80;99.90
12025;DHT22;6073;53.230;10.444;2022-10-16T01:47:57;11.80;99.90
12025;DHT22;6073;53.230;10.444;2022-10-16T01:50:24;11.80;99.90
12025;DHT22;6073;53.230;10.444;2022-10-16T01:52:53;11.80;99.90
12025;DHT22;6073;53.230;10.444;2022-10-16T01:55:24;11.70;99.90
12025;DHT22;6073;53.230;10.444;2022-10-16T01:57:51;11.70;99.90
12025;DHT22;6073;53.230;10.444;2022-10-16T02:00:20;11.70;99.90
12025;DHT22;6073;53.230;10.444;2022-10-16T02:02:53;11.60;99.90
12025;DHT22;6073;53.230;10.444;2022-10-16T02:05:41;11.60;99.90
12025;DHT22;6073;53.230;10.444;2022-10-16T02:08:07;11.50;99.90
12025;DHT22;6073;53.230;10.444;2022-10-16T02:10:34;11.50;99.90
12025;DHT22;6073;53.230;10.444;2022-10-16T02:13:13;11.50;99.90
12025;DHT22;6073;53.230;10.444;2022-10-16T02:15:41;11.50;99.90
12025;DHT22;6073;53.230;10.444;2022-10-16T02:18:07;11.50;99.90
12025;DHT22;6073;53.230;10.444;2022-10-16T02:23:54;11.50;99.90
12025;DHT22;6073;53.230;10.444;2022-10-16T02:26:36;11.40;99.90
12025;DHT22;6073;53.230;10.444;2022-10-16T02:29:08;11.40;99.90
12025;DHT22;6073;53.230;10.444;2022-10-16T02:31:40;11.40;99.90
12025;DHT22;6073;53.230;10.444;2022-10-16T02:34:07;11.40;99.90
12025;DHT22;6073;53.230;10.444;2022-10-16T02:36:36;11.50;99.90
12025;DHT22;6073;53.230;10.444;2022-10-16T02:39:03;11.50;99.90
12025;DHT22;6073;53.230;10.444;2022-10-16T02:41:30;11.50;99.90
12025;DHT22;6073;53.230;10.444;2022-10-16T02:43:56;11.50;99.90
12025;DHT22;6073;53.230;10.444;2022-10-16T02:46:22;11.50;99.90
12025;DHT22;6073;53.230;10.444;2022-10-16T02:48:47;11.50;99.90
12025;DHT22;6073;53.230;10.444;2022-10-16T02:51:13;11.50;99.90
12025;DHT22;6073;53.230;10.444;2022-10-16T02:53:38;11.50;99.90
12025;DHT22;6073;53.230;10.444;2022-10-16T02:56:04;11.30;99.90
12025;DHT22;6073;53.230;10.444;2022-10-16T02:58:30;11.30;99.90
12025;DHT22;6073;53.230;10.444;2022-10-16T03:00:58;11.30;99.90
12025;DHT22;6073;53.230;10.444;2022-10-16T03:03:23;11.30;99.90
12025;DHT22;6073;53.230;10.444;2022-10-16T03:05:49;11.30;99.90
12025;DHT22;6073;53.230;10.444;2022-10-16T03:08:15;11.30;99.90
12025;DHT22;6073;53.230;10.444;2022-10-16T03:10:41;11.30;99.90
12025;DHT22;6073;53.230;10.444;2022-10-16T03:13:06;11.30;99.90
12025;DHT22;6073;53.230;10.444;2022-10-16T03:15:32;11.30;99.90
12025;DHT22;6073;53.230;10.444;2022-10-16T03:17:58;11.30;99.90
12025;DHT22;6073;53.230;10.444;2022-10-16T03:20:24;11.30;99.90
12025;DHT22;6073;53.230;10.444;2022-10-16T03:22:50;11.30;99.90
12025;DHT22;6073;53.230;10.444;2022-10-16T03:25:16;11.20;99.90
12025;DHT22;6073;53.230;10.444;2022-10-16T03:27:42;11.20;99.90
12025;DHT22;6073;53.230;10.444;2022-10-16T03:30:08;11.30;99.90
12025;DHT22;6073;53.230;10.444;2022-10-16T03:32:34;11.20;99.90
12025;DHT22;6073;53.230;10.444;2022-10-16T03:34:59;11.20;99.90
12025;DHT22;6073;53.230;10.444;2022-10-16T03:37:25;11.20;99.90
12025;DHT22;6073;53.230;10.444;2022-10-16T03:39:50;11.20;99.90
12025;DHT22;6073;53.230;10.444;2022-10-16T03:42:16;11.20;99.90
12025;DHT22;6073;53.230;10.444;2022-10-16T03:44:42;11.20;99.90
12025;DHT22;6073;53.230;10.444;2022-10-16T03:47:07;11.20;99.90
12025;DHT22;6073;53.230;10.444;2022-10-16T03:49:33;11.10;99.90
12025;DHT22;6073;53.230;10.444;2022-10-16T03:51:59;11.20;99.90
12025;DHT22;6073;53.230;10.444;2022-10-16T03:54:24;11.20;99.90
12025;DHT22;6073;53.230;10.444;2022-10-16T03:56:50;11.20;99.90
12025;DHT22;6073;53.230;10.444;2022-10-16T03:59:15;11.20;99.90
12025;DHT22;6073;53.230;10.444;2022-10-16T04:01:41;11.20;99.90
12025;DHT22;6073;53.230;10.444;2022-10-16T04:04:06;11.30;99.90
12025;DHT22;6073;53.230;10.444;2022-10-16T04:06:32;11.30;99.90
12025;DHT22;6073;53.230;10.444;2022-10-16T04:08:57;11.30;99.90
12025;DHT22;6073;53.230;10.444;2022-10-16T04:11:23;11.30;99.90
12025;DHT22;6073;53.230;10.444;2022-10-16T04:13:49;11.30;99.90
12025;DHT22;6073;53.230;10.444;2022-10-16T04:16:14;11.30;99.90
12025;DHT22;6073;53.230;10.444;2022-10-16T04:18:40;11.40;99.90
12025;DHT22;6073;53.230;10.444;2022-10-16T04:21:06;11.30;99.90
12025;DHT22;6073;53.230;10.444;2022-10-16T04:23:32;11.30;99.90
12025;DHT22;6073;53.230;10.444;2022-10-16T04:25:58;11.30;99.90
12025;DHT22;6073;53.230;10.444;2022-10-16T04:28:24;11.30;99.90
12025;DHT22;6073;53.230;10.444;2022-10-16T04:30:50;11.20;99.90
12025;DHT22;6073;53.230;10.444;2022-10-16T04:33:16;11.30;99.90
12025;DHT22;6073;53.230;10.444;2022-10-16T04:35:41;11.40;99.90
12025;DHT22;6073;53.230;10.444;2022-10-16T04:38:07;11.30;99.90
12025;DHT22;6073;53.230;10.444;2022-10-16T04:40:32;11.30;99.90
12025;DHT22;6073;53.230;10.444;2022-10-16T04:42:59;11.40;99.90
12025;DHT22;6073;53.230;10.444;2022-10-16T04:45:24;11.30;99.90
12025;DHT22;6073;53.230;10.444;2022-10-16T04:47:50;11.30;99.90
12025;DHT22;6073;53.230;10.444;2022-10-16T04:50:16;11.40;99.90
12025;DHT22;6073;53.230;10.444;2022-10-16T04:52:41;11.30;99.90
12025;DHT22;6073;53.230;10.444;2022-10-16T04:55:07;11.30;99.90
12025;DHT22;6073;53.230;10.444;2022-10-16T04:57:33;11.30;99.90
12025;DHT22;6073;53.230;10.444;2022-10-16T04:59:59;11.30;99.90
12025;DHT22;6073;53.230;10.444;2022-10-16T05:02:25;11.40;99.90
12025;DHT22;6073;53.230;10.444;2022-10-16T05:04:51;11.40;99.90
12025;DHT22;6073;53.230;10.444;2022-10-16T05:07:53;11.30;99.90
12025;DHT22;6073;53.230;10.444;2022-10-16T05:10:19;11.20;99.90
12025;DHT22;6073;53.230;10.444;2022-10-16T05:12:45;11.20;99.90
12025;DHT22;6073;53.230;10.444;2022-10-16T05:15:11;11.10;99.90
12025;DHT22;6073;53.230;10.444;2022-10-16T05:17:37;11.10;99.90
12025;DHT22;6073;53.230;10.444;2022-10-16T05:20:03;11.10;99.90
12025;DHT22;6073;53.230;10.444;2022-10-16T05:22:29;11.00;99.90
12025;DHT22;6073;53.230;10.444;2022-10-16T05:24:54;11.00;99.90
12025;DHT22;6073;53.230;10.444;2022-10-16T05:27:20;11.10;99.90
12025;DHT22;6073;53.230;10.444;2022-10-16T05:29:47;11.10;99.90
12025;DHT22;6073;53.230;10.444;2022-10-16T05:32:14;11.10;99.90
12025;DHT22;6073;53.230;10.444;2022-10-16T05:34:39;11.10;99.90
12025;DHT22;6073;53.230;10.444;2022-10-16T05:37:05;11.10;99.90
12025;DHT22;6073;53.230;10.444;2022-10-16T05:39:33;11.10;99.90
12025;DHT22;6073;53.230;10.444;2022-10-16T05:42:08;11.20;99.90
12025;DHT22;6073;53.230;10.444;2022-10-16T05:44:35;11.20;99.90
12025;DHT22;6073;53.230;10.444;2022-10-16T05:47:00;11.20;99.90
12025;DHT22;6073;53.230;10.444;2022-10-16T05:49:29;11.30;99.90
12025;DHT22;6073;53.230;10.444;2022-10-16T05:51:57;11.20;99.90
12025;DHT22;6073;53.230;10.444;2022-10-16T05:54:32;11.20;99.90
12025;DHT22;6073;53.230;10.444;2022-10-16T05:56:57;11.20;99.90
12025;DHT22;6073;53.230;10.444;2022-10-16T05:59:26;11.20;99.90
12025;DHT22;6073;53.230;10.444;2022-10-16T06:01:54;11.30;99.90
12025;DHT22;6073;53.230;10.444;2022-10-16T06:04:19;11.20;99.90
12025;DHT22;6073;53.230;10.444;2022-10-16T06:06:45;11.30;99.90
12025;DHT22;6073;53.230;10.444;2022-10-16T06:09:21;11.30;99.90
12025;DHT22;6073;53.230;10.444;2022-10-16T06:11:46;11.30;99.90
12025;DHT22;6073;53.230;10.444;2022-10-16T06:14:22;11.40;99.90
12025;DHT22;6073;53.230;10.444;2022-10-16T06:16:59;11.40;99.90
12025;DHT22;6073;53.230;10.444;2022-10-16T06:19:25;11.50;99.90
12025;DHT22;6073;53.230;10.444;2022-10-16T06:21:50;11.40;99.90
12025;DHT22;6073;53.230;10.444;2022-10-16T06:24:17;11.50;99.90
12025;DHT22;6073;53.230;10.444;2022-10-16T06:26:43;11.40;99.90
12025;DHT22;6073;53.230;10.444;2022-10-16T06:29:11;11.40;99.90
12025;DHT22;6073;53.230;10.444;2022-10-16T06:31:40;11.30;99.90
12025;DHT22;6073;53.230;10.444;2022-10-16T06:34:05;11.30;99.90
12025;DHT22;6073;53.230;10.444;2022-10-16T06:36:36;11.20;99.90
12025;DHT22;6073;53.230;10.444;2022-10-16T06:39:05;11.20;99.90
12025;DHT22;6073;53.230;10.444;2022-10-16T06:41:36;11.20;99.90
12025;DHT22;6073;53.230;10.444;2022-10-16T06:44:05;11.30;99.90
12025;DHT22;6073;53.230;10.444;2022-10-16T06:46:30;11.40;99.90
12025;DHT22;6073;53.230;10.444;2022-10-16T06:48:56;11.40;99.90
12025;DHT22;6073;53.230;10.444;2022-10-16T06:51:23;11.40;99.90
12025;DHT22;6073;53.230;10.444;2022-10-16T06:53:51;11.50;99.90
12025;DHT22;6073;53.230;10.444;2022-10-16T06:56:22;11.60;99.90
12025;DHT22;6073;53.230;10.444;2022-10-16T06:58:49;11.60;99.90
12025;DHT22;6073;53.230;10.444;2022-10-16T07:01:16;11.60;99.90
12025;DHT22;6073;53.230;10.444;2022-10-16T07:03:42;11.70;99.90
12025;DHT22;6073;53.230;10.444;2022-10-16T07:06:10;11.70;99.90
12025;DHT22;6073;53.230;10.444;2022-10-16T07:08:41;11.90;99.90
12025;DHT22;6073;53.230;10.444;2022-10-16T07:11:10;11.90;99.90
12025;DHT22;6073;53.230;10.444;2022-10-16T07:13:38;11.90;99.90
12025;DHT22;6073;53.230;10.444;2022-10-16T07:16:13;11.90;99.90
12025;DHT22;6073;53.230;10.444;2022-10-16T07:18:39;12.00;99.90
12025;DHT22;6073;53.230;10.444;2022-10-16T07:21:14;12.10;99.90
12025;DHT22;6073;53.230;10.444;2022-10-16T07:23:54;12.20;99.90
12025;DHT22;6073;53.230;10.444;2022-10-16T07:26:20;12.40;99.90
12025;DHT22;6073;53.230;10.444;2022-10-16T07:28:47;12.70;99.90
12025;DHT22;6073;53.230;10.444;2022-10-16T07:31:14;13.10;99.90
12025;DHT22;6073;53.230;10.444;2022-10-16T07:33:42;13.40;99.90
12025;DHT22;6073;53.230;10.444;2022-10-16T07:36:10;13.80;99.90
12025;DHT22;6073;53.230;10.444;2022-10-16T07:38:39;13.90;99.90
12025;DHT22;6073;53.230;10.444;2022-10-16T07:41:11;14.10;99.90
12025;DHT22;6073;53.230;10.444;2022-10-16T07:43:40;14.10;99.90
12025;DHT22;6073;53.230;10.444;2022-10-16T07:46:11;14.10;99.90
12025;DHT22;6073;53.230;10.444;2022-10-16T07:48:37;14.10;99.90
12025;DHT22;6073;53.230;10.444;2022-10-16T07:51:06;14.30;99.90
12025;DHT22;6073;53.230;10.444;2022-10-16T07:53:33;14.80;99.90
12025;DHT22;6073;53.230;10.444;2022-10-16T07:56:08;15.30;99.90
12025;DHT22;6073;53.230;10.444;2022-10-16T07:58:38;15.90;99.90
12025;DHT22;6073;53.230;10.444;2022-10-16T08:01:10;16.40;99.90
12025;DHT22;6073;53.230;10.444;2022-10-16T08:03:36;16.70;99.90
12025;DHT22;6073;53.230;10.444;2022-10-16T08:06:02;17.00;99.90
12025;DHT22;6073;53.230;10.444;2022-10-16T08:08:28;17.20;99.90
12025;DHT22;6073;53.230;10.444;2022-10-16T08:10:53;17.90;99.90
12025;DHT22;6073;53.230;10.444;2022-10-16T08:13:19;18.10;99.90
12025;DHT22;6073;53.230;10.444;2022-10-16T08:15:48;18.50;99.90
12025;DHT22;6073;53.230;10.444;2022-10-16T08:18:16;18.80;99.90
12025;DHT22;6073;53.230;10.444;2022-10-16T08:20:42;18.70;99.90
12025;DHT22;6073;53.230;10.444;2022-10-16T08:23:10;18.90;99.90
12025;DHT22;6073;53.230;10.444;2022-10-16T08:26:23;18.60;99.90
12025;DHT22;6073;53.230;10.444;2022-10-16T08:28:23;18.20;99.90
12025;DHT22;6073;53.230;10.444;2022-10-16T08:30:49;17.50;99.90
12025;DHT22;6073;53.230;10.444;2022-10-16T08:33:15;16.90;99.90
12025;DHT22;6073;53.230;10.444;2022-10-16T08:35:51;16.60;99.90
12025;DHT22;6073;53.230;10.444;2022-10-16T08:38:18;16.30;99.90
12025;DHT22;6073;53.230;10.444;2022-10-16T08:40:44;15.90;99.90
12025;DHT22;6073;53.230;10.444;2022-10-16T08:43:46;16.00;99.90
12025;DHT22;6073;53.230;10.444;2022-10-16T08:46:38;16.20;99.90
12025;DHT22;6073;53.230;10.444;2022-10-16T08:49:11;16.30;99.90
12025;DHT22;6073;53.230;10.444;2022-10-16T08:51:38;16.30;99.90
12025;DHT22;6073;53.230;10.444;2022-10-16T08:54:29;16.70;99.90
12025;DHT22;6073;53.230;10.444;2022-10-16T08:57:14;17.40;99.90
12025;DHT22;6073;53.230;10.444;2022-10-16T08:59:42;17.90;99.90
12025;DHT22;6073;53.230;10.444;2022-10-16T09:02:24;17.90;99.90
12025;DHT22;6073;53.230;10.444;2022-10-16T09:10:37;17.60;99.90
12025;DHT22;6073;53.230;10.444;2022-10-16T09:13:26;17.40;99.90
12025;DHT22;6073;53.230;10.444;2022-10-16T09:19:22;17.30;99.90
12025;DHT22;6073;53.230;10.444;2022-10-16T09:21:53;17.10;99.90
12025;DHT22;6073;53.230;10.444;2022-10-16T09:24:25;17.00;99.90
12025;DHT22;6073;53.230;10.444;2022-10-16T09:26:52;17.00;99.90
12025;DHT22;6073;53.230;10.444;2022-10-16T09:29:19;17.10;99.90
12025;DHT22;6073;53.230;10.444;2022-10-16T09:31:47;17.00;99.90
12025;DHT22;6073;53.230;10.444;2022-10-16T09:34:30;17.00;99.90
12025;DHT22;6073;53.230;10.444;2022-10-16T09:36:57;17.10;99.90
12025;DHT22;6073;53.230;10.444;2022-10-16T09:39:27;17.20;99.90
12025;DHT22;6073;53.230;10.444;2022-10-16T09:41:52;17.50;99.90
12025;DHT22;6073;53.230;10.444;2022-10-16T09:44:25;17.30;99.90
12025;DHT22;6073;53.230;10.444;2022-10-16T09:47:02;17.30;99.90
12025;DHT22;6073;53.230;10.444;2022-10-16T09:49:36;17.30;99.90
12025;DHT22;6073;53.230;10.444;2022-10-16T09:52:13;17.50;99.90
12025;DHT22;6073;53.230;10.444;2022-10-16T09:55:18;17.60;99.90
12025;DHT22;6073;53.230;10.444;2022-10-16T09:57:51;17.80;99.90
12025;DHT22;6073;53.230;10.444;2022-10-16T10:00:23;17.70;99.90
12025;DHT22;6073;53.230;10.444;2022-10-16T10:02:52;17.70;99.90
12025;DHT22;6073;53.230;10.444;2022-10-16T10:05:24;17.70;99.90
12025;DHT22;6073;53.230;10.444;2022-10-16T10:08:01;17.80;99.90
12025;DHT22;6073;53.230;10.444;2022-10-16T10:10:39;17.80;99.90
12025;DHT22;6073;53.230;10.444;2022-10-16T10:13:37;17.90;99.90
12025;DHT22;6073;53.230;10.444;2022-10-16T10:16:06;18.00;99.90
12025;DHT22;6073;53.230;10.444;2022-10-16T10:18:36;18.10;99.90
12025;DHT22;6073;53.230;10.444;2022-10-16T10:21:13;18.20;99.90
12025;DHT22;6073;53.230;10.444;2022-10-16T10:23:43;18.20;99.90
12025;DHT22;6073;53.230;10.444;2022-10-16T10:26:18;18.20;99.90
12025;DHT22;6073;53.230;10.444;2022-10-16T10:28:55;18.20;99.90
12025;DHT22;6073;53.230;10.444;2022-10-16T10:31:46;18.20;99.90
12025;DHT22;6073;53.230;10.444;2022-10-16T10:45:48;18.60;99.90
12025;DHT22;6073;53.230;10.444;2022-10-16T10:48:18;18.60;99.90
12025;DHT22;6073;53.230;10.444;2022-10-16T10:51:01;18.50;99.90
12025;DHT22;6073;53.230;10.444;2022-10-16T11:02:10;18.70;99.90
12025;DHT22;6073;53.230;10.444;2022-10-16T11:07:20;18.80;99.90
12025;DHT22;6073;53.230;10.444;2022-10-16T11:10:13;18.80;99.90
12025;DHT22;6073;53.230;10.444;2022-10-16T11:12:47;18.80;99.90
12025;DHT22;6073;53.230;10.444;2022-10-16T11:15:36;18.90;99.90
12025;DHT22;6073;53.230;10.444;2022-10-16T11:18:15;19.00;99.90
12025;DHT22;6073;53.230;10.444;2022-10-16T11:20:54;18.90;99.90
12025;DHT22;6073;53.230;10.444;2022-10-16T11:23:36;18.90;99.90
12025;DHT22;6073;53.230;10.444;2022-10-16T11:26:05;18.60;99.90
12025;DHT22;6073;53.230;10.444;2022-10-16T11:28:42;18.50;99.90
12025;DHT22;6073;53.230;10.444;2022-10-16T11:36:53;18.30;99.90
12025;DHT22;6073;53.230;10.444;2022-10-16T11:39:26;18.50;99.90
12025;DHT22;6073;53.230;10.444;2022-10-16T11:42:22;18.60;99.90
12025;DHT22;6073;53.230;10.444;2022-10-16T11:47:41;18.80;99.90
12025;DHT22;6073;53.230;10.444;2022-10-16T11:53:20;18.60;99.90
12025;DHT22;6073;53.230;10.444;2022-10-16T11:55:49;18.80;99.90
12025;DHT22;6073;53.230;10.444;2022-10-16T11:58:44;18.80;99.90
12025;DHT22;6073;53.230;10.444;2022-10-16T12:01:22;18.90;99.90
12025;DHT22;6073;53.230;10.444;2022-10-16T12:06:43;18.60;99.90
12025;DHT22;6073;53.230;10.444;2022-10-16T12:09:36;18.60;99.90
12025;DHT22;6073;53.230;10.444;2022-10-16T12:12:27;18.70;99.90
12025;DHT22;6073;53.230;10.444;2022-10-16T12:17:47;18.80;99.90
12025;DHT22;6073;53.230;10.444;2022-10-16T12:20:30;18.80;99.90
12025;DHT22;6073;53.230;10.444;2022-10-16T12:23:05;18.90;99.90
12025;DHT22;6073;53.230;10.444;2022-10-16T12:25:42;18.90;99.90
12025;DHT22;6073;53.230;10.444;2022-10-16T12:28:29;18.80;99.90
12025;DHT22;6073;53.230;10.444;2022-10-16T12:31:06;18.80;99.90
12025;DHT22;6073;53.230;10.444;2022-10-16T12:33:39;18.80;99.90
12025;DHT22;6073;53.230;10.444;2022-10-16T12:36:37;18.70;99.90
12025;DHT22;6073;53.230;10.444;2022-10-16T12:39:02;18.80;99.90
12025;DHT22;6073;53.230;10.444;2022-10-16T12:41:32;18.70;99.90
12025;DHT22;6073;53.230;10.444;2022-10-16T12:43:59;18.60;99.90
12025;DHT22;6073;53.230;10.444;2022-10-16T12:49:21;18.40;99.90
12025;DHT22;6073;53.230;10.444;2022-10-16T12:51:50;18.30;99.90
12025;DHT22;6073;53.230;10.444;2022-10-16T12:54:43;18.20;99.90
12025;DHT22;6073;53.230;10.444;2022-10-16T13:03:38;18.20;99.90
12025;DHT22;6073;53.230;10.444;2022-10-16T13:06:02;18.40;99.90
12025;DHT22;6073;53.230;10.444;2022-10-16T13:11:17;18.50;99.90
12025;DHT22;6073;53.230;10.444;2022-10-16T13:16:17;18.60;99.90
12025;DHT22;6073;53.230;10.444;2022-10-16T13:24:47;18.60;99.90
12025;DHT22;6073;53.230;10.444;2022-10-16T13:30:19;18.50;99.90
12025;DHT22;6073;53.230;10.444;2022-10-16T13:32:51;18.30;99.90
12025;DHT22;6073;53.230;10.444;2022-10-16T13:35:26;18.20;99.90
12025;DHT22;6073;53.230;10.444;2022-10-16T13:38:13;18.00;99.90
12025;DHT22;6073;53.230;10.444;2022-10-16T13:43:14;18.00;99.90
12025;DHT22;6073;53.230;10.444;2022-10-16T13:45:53;18.10;99.90
12025;DHT22;6073;53.230;10.444;2022-10-16T13:48:19;18.10;99.90
12025;DHT22;6073;53.230;10.444;2022-10-16T13:50:44;18.10;99.90
12025;DHT22;6073;53.230;10.444;2022-10-16T13:53:13;18.10;99.90
12025;DHT22;6073;53.230;10.444;2022-10-16T13:55:39;18.20;99.90
12025;DHT22;6073;53.230;10.444;2022-10-16T13:58:08;18.30;99.90
12025;DHT22;6073;53.230;10.444;2022-10-16T14:00:34;18.30;99.90
12025;DHT22;6073;53.230;10.444;2022-10-16T14:03:07;18.30;99.90
12025;DHT22;6073;53.230;10.444;2022-10-16T14:05:36;18.30;99.90
12025;DHT22;6073;53.230;10.444;2022-10-16T14:08:11;18.30;99.90
12025;DHT22;6073;53.230;10.444;2022-10-16T14:10:38;18.20;99.90
12025;DHT22;6073;53.230;10.444;2022-10-16T14:13:06;18.20;99.90
12025;DHT22;6073;53.230;10.444;2022-10-16T14:15:34;18.20;99.90
12025;DHT22;6073;53.230;10.444;2022-10-16T14:18:00;18.20;99.90
12025;DHT22;6073;53.230;10.444;2022-10-16T14:20:29;18.20;99.90
12025;DHT22;6073;53.230;10.444;2022-10-16T14:23:04;18.10;99.90
12025;DHT22;6073;53.230;10.444;2022-10-16T14:25:43;18.10;99.90
12025;DHT22;6073;53.230;10.444;2022-10-16T14:28:21;18.00;99.90
12025;DHT22;6073;53.230;10.444;2022-10-16T14:30:55;18.00;99.90
12025;DHT22;6073;53.230;10.444;2022-10-16T14:33:31;18.00;99.90
12025;DHT22;6073;53.230;10.444;2022-10-16T14:38:37;18.00;99.90
12025;DHT22;6073;53.230;10.444;2022-10-16T14:41:05;17.90;99.90
12025;DHT22;6073;53.230;10.444;2022-10-16T14:43:39;17.90;99.90
12025;DHT22;6073;53.230;10.444;2022-10-16T14:46:28;17.80;99.90
12025;DHT22;6073;53.230;10.444;2022-10-16T14:49:04;17.80;99.90
12025;DHT22;6073;53.230;10.444;2022-10-16T14:51:39;17.70;99.90
12025;DHT22;6073;53.230;10.444;2022-10-16T14:54:13;17.70;99.90
12025;DHT22;6073;53.230;10.444;2022-10-16T14:59:19;17.60;99.90
12025;DHT22;6073;53.230;10.444;2022-10-16T15:01:47;17.60;99.90
12025;DHT22;6073;53.230;10.444;2022-10-16T15:04:13;17.50;99.90
12025;DHT22;6073;53.230;10.444;2022-10-16T15:06:39;17.50;99.90
12025;DHT22;6073;53.230;10.444;2022-10-16T15:09:08;17.50;99.90
12025;DHT22;6073;53.230;10.444;2022-10-16T15:11:33;17.50;99.90
12025;DHT22;6073;53.230;10.444;2022-10-16T15:13:59;17.40;99.90
12025;DHT22;6073;53.230;10.444;2022-10-16T15:16:25;17.40;99.90
12025;DHT22;6073;53.230;10.444;2022-10-16T15:18:50;17.30;99.90
12025;DHT22;6073;53.230;10.444;2022-10-16T15:21:26;17.20;99.90
12025;DHT22;6073;53.230;10.444;2022-10-16T15:23:53;17.20;99.90
12025;DHT22;6073;53.230;10.444;2022-10-16T15:26:18;17.00;99.90
12025;DHT22;6073;53.230;10.444;2022-10-16T15:28:44;17.10;99.90
12025;DHT22;6073;53.230;10.444;2022-10-16T15:31:09;17.00;99.90
12025;DHT22;6073;53.230;10.444;2022-10-16T15:33:41;16.90;99.90
12025;DHT22;6073;53.230;10.444;2022-10-16T15:36:07;16.80;99.90
12025;DHT22;6073;53.230;10.444;2022-10-16T15:38:33;16.70;99.90
12025;DHT22;6073;53.230;10.444;2022-10-16T15:40:59;16.60;99.90
12025;DHT22;6073;53.230;10.444;2022-10-16T15:43:24;16.50;99.90
12025;DHT22;6073;53.230;10.444;2022-10-16T15:46:05;16.40;99.90
12025;DHT22;6073;53.230;10.444;2022-10-16T15:48:34;16.40;99.90
12025;DHT22;6073;53.230;10.444;2022-10-16T15:51:05;16.20;99.90
12025;DHT22;6073;53.230;10.444;2022-10-16T15:53:32;16.10;99.90
12025;DHT22;6073;53.230;10.444;2022-10-16T15:56:10;16.00;99.90
12025;DHT22;6073;53.230;10.444;2022-10-16T15:58:37;15.90;99.90
12025;DHT22;6073;53.230;10.444;2022-10-16T16:01:03;15.80;99.90
12025;DHT22;6073;53.230;10.444;2022-10-16T16:03:33;15.70;99.90
12025;DHT22;6073;53.230;10.444;2022-10-16T16:06:04;15.70;99.90
12025;DHT22;6073;53.230;10.444;2022-10-16T16:08:30;15.60;99.90
12025;DHT22;6073;53.230;10.444;2022-10-16T16:11:05;15.40;99.90
12025;DHT22;6073;53.230;10.444;2022-10-16T16:13:35;15.30;99.90
12025;DHT22;6073;53.230;10.444;2022-10-16T16:16:05;15.00;99.90
12025;DHT22;6073;53.230;10.444;2022-10-16T16:18:32;14.90;99.90
12025;DHT22;6073;53.230;10.444;2022-10-16T16:20:58;14.70;99.90
12025;DHT22;6073;53.230;10.444;2022-10-16T16:23:24;14.60;99.90
12025;DHT22;6073;53.230;10.444;2022-10-16T16:26:26;14.40;99.90
12025;DHT22;6073;53.230;10.444;2022-10-16T16:29:00;14.30;99.90
12025;DHT22;6073;53.230;10.444;2022-10-16T16:31:28;14.20;99.90
12025;DHT22;6073;53.230;10.444;2022-10-16T16:33:53;14.00;99.90
12025;DHT22;6073;53.230;10.444;2022-10-16T16:36:19;13.90;99.90
12025;DHT22;6073;53.230;10.444;2022-10-16T16:38:45;13.80;99.90
12025;DHT22;6073;53.230;10.444;2022-10-16T16:41:14;13.70;99.90
12025;DHT22;6073;53.230;10.444;2022-10-16T16:43:40;13.60;99.90
12025;DHT22;6073;53.230;10.444;2022-10-16T16:46:06;13.40;99.90
12025;DHT22;6073;53.230;10.444;2022-10-16T16:48:32;13.30;99.90
12025;DHT22;6073;53.230;10.444;2022-10-16T16:51:05;13.20;99.90
12025;DHT22;6073;53.230;10.444;2022-10-16T16:53:34;13.10;99.90
12025;DHT22;6073;53.230;10.444;2022-10-16T16:56:04;13.00;99.90
12025;DHT22;6073;53.230;10.444;2022-10-16T16:58:30;12.90;99.90
12025;DHT22;6073;53.230;10.444;2022-10-16T17:00:56;12.80;99.90
12025;DHT22;6073;53.230;10.444;2022-10-16T17:03:21;12.80;99.90
12025;DHT22;6073;53.230;10.444;2022-10-16T17:06:01;12.70;99.90
12025;DHT22;6073;53.230;10.444;2022-10-16T17:08:28;12.60;99.90
12025;DHT22;6073;53.230;10.444;2022-10-16T17:10:54;12.50;99.90
12025;DHT22;6073;53.230;10.444;2022-10-16T17:13:22;12.50;99.90
12025;DHT22;6073;53.230;10.444;2022-10-16T17:15:49;12.30;99.90
12025;DHT22;6073;53.230;10.444;2022-10-16T17:18:15;12.30;99.90
12025;DHT22;6073;53.230;10.444;2022-10-16T17:20:42;12.20;99.90
12025;DHT22;6073;53.230;10.444;2022-10-16T17:23:08;12.20;99.90
12025;DHT22;6073;53.230;10.444;2022-10-16T17:25:38;12.10;99.90
12025;DHT22;6073;53.230;10.444;2022-10-16T17:28:04;12.00;99.90
12025;DHT22;6073;53.230;10.444;2022-10-16T17:30:30;12.00;99.90